createdAt,value
2018-09-09T00:00:36.305Z,69.73
2018-09-09T00:02:48.552Z,70.55
2018-09-09T00:05:00.794Z,70.30
2018-09-09T00:07:13.366Z,70.34
2018-09-09T00:09:31.231Z,70.33
2018-09-09T00:11:43.424Z,71.37
2018-09-09T00:13:55.598Z,71.40
2018-09-09T00:16:07.859Z,71.42
2018-09-09T00:18:20.058Z,71.80
2018-09-09T00:20:32.267Z,71.24
2018-09-09T00:22:44.480Z,71.29
2018-09-09T00:24:56.728Z,72.10
2018-09-09T00:27:09.005Z,71.90
2018-09-09T00:29:21.210Z,71.85
2018-09-09T00:31:33.454Z,72.67
2018-09-09T00:33:45.651Z,71.94
2018-09-09T00:35:58.228Z,72.01
2018-09-09T00:38:10.412Z,72.38
2018-09-09T00:40:22.720Z,72.31
2018-09-09T00:42:35.044Z,72.26
2018-09-09T00:44:47.241Z,72.58
2018-09-09T00:46:59.450Z,72.80
2018-09-09T00:49:17.395Z,72.17
2018-09-09T00:51:35.208Z,73.44
2018-09-09T00:53:47.843Z,73.30
2018-09-09T00:56:00.052Z,73.72
2018-09-09T00:58:12.280Z,73.16
2018-09-09T01:00:30.210Z,72.84
2018-09-09T01:02:42.423Z,74.18
2018-09-09T01:04:54.655Z,74.06
2018-09-09T01:07:06.924Z,74.13
2018-09-09T01:09:19.178Z,73.51
2018-09-09T01:11:31.378Z,73.30
2018-09-09T01:13:43.559Z,74.19
2018-09-09T01:15:55.779Z,73.20
2018-09-09T01:18:08.070Z,74.07
2018-09-09T01:20:20.455Z,73.54
2018-09-09T01:22:32.671Z,72.80
2018-09-09T01:24:44.852Z,73.64
2018-09-09T01:26:57.089Z,73.39
2018-09-09T01:29:09.302Z,73.74
2018-09-09T01:31:21.519Z,73.75
2018-09-09T01:33:33.747Z,74.05
2018-09-09T01:35:45.923Z,74.54
2018-09-09T01:37:58.127Z,73.76
2018-09-09T01:40:10.307Z,73.72
2018-09-09T01:42:22.528Z,74.29
2018-09-09T01:44:34.737Z,74.50
2018-09-09T01:46:46.910Z,75.09
2018-09-09T01:48:59.140Z,74.95
2018-09-09T01:51:11.347Z,74.57
2018-09-09T01:53:25.049Z,73.46
2018-09-09T01:55:37.220Z,73.82
2018-09-09T01:57:49.411Z,72.92
2018-09-09T02:00:01.614Z,73.34
2018-09-09T02:02:13.798Z,72.75
2018-09-09T02:04:26.028Z,73.78
2018-09-09T02:06:38.211Z,72.76
2018-09-09T02:08:50.419Z,73.43
2018-09-09T02:11:02.591Z,73.89
2018-09-09T02:13:14.803Z,73.17
2018-09-09T02:15:27.004Z,74.23
2018-09-09T02:17:39.351Z,74.35
2018-09-09T02:19:51.562Z,73.71
2018-09-09T02:22:03.768Z,73.26
2018-09-09T02:24:15.976Z,73.86
2018-09-09T02:26:28.171Z,74.64
2018-09-09T02:28:40.431Z,74.37
2018-09-09T02:30:52.623Z,73.60
2018-09-09T02:33:04.838Z,74.28
2018-09-09T02:35:17.034Z,74.00
2018-09-09T02:37:29.223Z,73.84
2018-09-09T02:39:41.501Z,73.55
2018-09-09T02:41:53.695Z,74.30
2018-09-09T02:44:06.006Z,74.09
2018-09-09T02:46:18.206Z,74.32
2018-09-09T02:48:30.383Z,74.76
2018-09-09T02:50:42.595Z,74.27
2018-09-09T02:52:54.830Z,73.99
2018-09-09T02:55:07.128Z,74.04
2018-09-09T02:57:19.314Z,74.72
2018-09-09T02:59:31.493Z,75.04
2018-09-09T03:01:43.690Z,74.78
2018-09-09T03:03:55.897Z,74.69
2018-09-09T03:06:08.138Z,74.82
2018-09-09T03:08:20.320Z,75.15
2018-09-09T03:10:32.516Z,75.37
2018-09-09T03:12:44.729Z,76.09
2018-09-09T03:14:58.172Z,75.53
2018-09-09T03:17:10.496Z,74.97
2018-09-09T03:19:22.760Z,75.33
2018-09-09T03:21:34.992Z,74.97
2018-09-09T03:23:47.182Z,75.63
2018-09-09T03:26:00.138Z,76.12
2018-09-09T03:28:12.343Z,75.86
2018-09-09T03:30:24.643Z,75.67
2018-09-09T03:32:36.869Z,76.33
2018-09-09T03:34:49.071Z,75.54
2018-09-09T03:37:01.292Z,76.35
2018-09-09T03:39:13.499Z,75.52
2018-09-09T03:41:25.672Z,76.99
2018-09-09T03:43:37.893Z,75.70
2018-09-09T03:45:50.131Z,75.94
2018-09-09T03:48:02.391Z,76.31
2018-09-09T03:50:14.589Z,76.21
2018-09-09T03:52:26.826Z,76.17
2018-09-09T03:54:38.986Z,75.59
2018-09-09T03:56:51.213Z,75.31
2018-09-09T03:59:03.466Z,75.79
2018-09-09T04:01:15.676Z,75.23
2018-09-09T04:03:27.879Z,75.95
2018-09-09T04:05:40.118Z,75.58
2018-09-09T04:07:52.396Z,76.34
2018-09-09T04:10:05.003Z,75.81
2018-09-09T04:12:17.131Z,76.37
2018-09-09T04:14:29.331Z,76.32
2018-09-09T04:16:41.502Z,76.60
2018-09-09T04:18:53.736Z,76.79
2018-09-09T04:21:05.918Z,75.94
2018-09-09T04:23:18.142Z,76.71
2018-09-09T04:25:30.337Z,76.88
2018-09-09T04:27:42.523Z,76.52
2018-09-09T04:29:54.782Z,76.96
2018-09-09T04:32:06.967Z,77.43
2018-09-09T04:34:19.171Z,76.71
2018-09-09T04:36:31.441Z,77.77
2018-09-09T04:38:43.713Z,77.75
2018-09-09T04:40:55.947Z,77.92
2018-09-09T04:43:08.176Z,77.99
2018-09-09T04:45:20.379Z,77.46
2018-09-09T04:47:32.590Z,78.21
2018-09-09T04:49:44.813Z,77.65
2018-09-09T04:51:57.017Z,78.67
2018-09-09T04:54:09.251Z,78.22
2018-09-09T04:56:21.439Z,78.97
2018-09-09T04:58:33.647Z,78.69
2018-09-09T05:00:45.831Z,79.10
2018-09-09T05:02:58.010Z,78.08
2018-09-09T05:05:10.268Z,79.27
2018-09-09T05:07:22.459Z,78.71
2018-09-09T05:09:34.679Z,78.58
2018-09-09T05:11:46.858Z,78.45
2018-09-09T05:13:59.041Z,79.29
2018-09-09T05:16:11.247Z,79.08
2018-09-09T05:18:23.463Z,78.78
2018-09-09T05:20:35.704Z,77.94
2018-09-09T05:22:47.888Z,78.30
2018-09-09T05:25:00.104Z,79.07
2018-09-09T05:27:12.307Z,78.39
2018-09-09T05:29:24.481Z,78.47
2018-09-09T05:31:36.704Z,78.01
2018-09-09T05:33:48.891Z,78.89
2018-09-09T05:36:01.131Z,78.93
2018-09-09T05:38:13.339Z,78.98
2018-09-09T05:40:25.543Z,78.88
2018-09-09T05:42:37.771Z,78.90
2018-09-09T05:44:50.028Z,78.57
2018-09-09T05:47:02.249Z,78.29
2018-09-09T05:49:14.451Z,78.69
2018-09-09T05:51:26.689Z,78.46
2018-09-09T05:53:38.878Z,78.16
2018-09-09T05:55:51.126Z,78.01
2018-09-09T05:58:03.335Z,77.68
2018-09-09T06:00:15.572Z,77.19
2018-09-09T06:02:27.818Z,77.25
2018-09-09T06:04:40.047Z,77.21
2018-09-09T06:06:52.283Z,77.62
2018-09-09T06:09:06.906Z,76.25
2018-09-09T06:11:19.141Z,76.23
2018-09-09T06:13:31.337Z,76.04
2018-09-09T06:15:43.527Z,75.20
2018-09-09T06:17:55.734Z,75.54
2018-09-09T06:20:07.952Z,75.54
2018-09-09T06:22:20.183Z,73.59
2018-09-09T06:24:32.386Z,71.95
2018-09-09T06:26:44.610Z,69.42
2018-09-09T06:28:56.870Z,67.90
2018-09-09T06:31:09.073Z,66.55
2018-09-09T06:33:21.344Z,65.05
2018-09-09T06:35:33.551Z,63.82
2018-09-09T06:37:45.782Z,64.01
2018-09-09T06:39:58.040Z,63.53
2018-09-09T06:42:10.254Z,63.53
2018-09-09T06:44:22.475Z,64.14
2018-09-09T06:46:35.048Z,63.59
2018-09-09T06:48:47.444Z,63.37
2018-09-09T06:50:59.714Z,63.10
2018-09-09T06:53:11.928Z,63.86
2018-09-09T06:55:24.186Z,64.20
2018-09-09T06:57:36.444Z,63.85
2018-09-09T06:59:48.721Z,64.73
2018-09-09T07:02:00.895Z,64.90
2018-09-09T07:04:13.171Z,63.42
2018-09-09T07:06:25.442Z,63.50
2018-09-09T07:08:37.699Z,61.66
2018-09-09T07:10:50.087Z,63.54
2018-09-09T07:13:02.280Z,63.86
2018-09-09T07:15:14.599Z,63.44
2018-09-09T07:17:26.854Z,63.24
2018-09-09T07:19:39.127Z,63.20
2018-09-09T07:21:51.349Z,62.51
2018-09-09T07:24:03.612Z,62.92
2018-09-09T07:26:15.917Z,62.90
2018-09-09T07:28:28.268Z,63.12
2018-09-09T07:30:40.487Z,63.48
2018-09-09T07:32:52.721Z,62.73
2018-09-09T07:35:05.038Z,62.93
2018-09-09T07:37:17.319Z,63.27
2018-09-09T07:39:29.578Z,60.01
2018-09-09T07:41:41.816Z,61.14
2018-09-09T07:43:54.037Z,61.79
2018-09-09T07:46:06.430Z,59.07
2018-09-09T07:48:18.708Z,59.25
2018-09-09T07:50:31.042Z,55.56
2018-09-09T07:52:43.320Z,57.11
2018-09-09T07:54:55.578Z,55.81
2018-09-09T07:57:07.857Z,55.36
2018-09-09T07:59:20.056Z,55.50
2018-09-09T08:01:32.339Z,56.39
2018-09-09T08:03:44.610Z,54.07
2018-09-09T08:05:56.908Z,55.50
2018-09-09T08:08:09.162Z,54.92
2018-09-09T08:10:21.439Z,52.39
2018-09-09T08:12:33.670Z,51.51
2018-09-09T08:14:45.922Z,52.88
2018-09-09T08:16:58.126Z,53.55
2018-09-09T08:19:10.364Z,53.79
2018-09-09T08:21:22.655Z,54.83
2018-09-09T08:23:34.961Z,52.67
2018-09-09T08:25:47.205Z,51.21
2018-09-09T08:27:59.439Z,53.08
2018-09-09T08:30:11.806Z,52.01
2018-09-09T08:32:24.155Z,52.25
2018-09-09T08:34:36.437Z,53.21
2018-09-09T08:36:48.684Z,53.37
2018-09-09T08:39:00.996Z,51.32
2018-09-09T08:41:13.272Z,50.85
2018-09-09T08:43:25.523Z,50.46
2018-09-09T08:45:37.791Z,49.08
2018-09-09T08:47:50.002Z,49.40
2018-09-09T08:50:02.450Z,49.56
2018-09-09T08:52:14.824Z,49.73
2018-09-09T08:54:27.191Z,49.52
2018-09-09T08:56:39.435Z,50.96
2018-09-09T08:58:51.813Z,50.24
2018-09-09T09:01:04.183Z,51.60
2018-09-09T09:03:16.462Z,50.55
2018-09-09T09:05:28.716Z,49.71
2018-09-09T09:07:41.085Z,46.88
2018-09-09T09:09:53.315Z,48.72
2018-09-09T09:12:11.834Z,49.55
2018-09-09T09:14:24.132Z,47.14
2018-09-09T09:16:36.365Z,47.84
2018-09-09T09:18:48.620Z,47.31
2018-09-09T09:21:00.896Z,47.85
2018-09-09T09:23:13.113Z,46.86
2018-09-09T09:25:25.386Z,44.22
2018-09-09T09:27:37.642Z,43.97
2018-09-09T09:29:55.843Z,46.19
2018-09-09T09:32:08.150Z,41.44
2018-09-09T09:34:20.442Z,43.56
2018-09-09T09:36:32.685Z,40.74
2018-09-09T09:38:44.976Z,40.87
2018-09-09T09:40:57.276Z,41.02
2018-09-09T09:43:09.880Z,43.16
2018-09-09T09:45:22.243Z,41.66
2018-09-09T09:47:34.501Z,44.89
2018-09-09T09:49:46.843Z,41.61
2018-09-09T09:51:59.136Z,40.88
2018-09-09T09:54:11.448Z,42.14
2018-09-09T09:56:23.716Z,40.36
2018-09-09T09:58:36.044Z,44.22
2018-09-09T10:00:53.968Z,41.69
2018-09-09T10:03:06.000Z,40.22
2018-09-09T10:05:18.279Z,41.19
2018-09-09T10:07:30.511Z,42.54
2018-09-09T10:09:42.756Z,43.62
2018-09-09T10:11:55.025Z,41.64
2018-09-09T10:14:07.379Z,40.55
2018-09-09T10:16:19.674Z,40.22
2018-09-09T10:18:31.938Z,42.10
2018-09-09T10:20:44.153Z,41.46
2018-09-09T10:22:56.441Z,41.27
2018-09-09T10:25:08.816Z,41.92
2018-09-09T10:27:21.052Z,43.17
2018-09-09T10:29:33.318Z,42.93
2018-09-09T10:31:45.622Z,44.46
2018-09-09T10:33:57.976Z,44.18
2018-09-09T10:36:10.196Z,42.82
2018-09-09T10:38:22.536Z,43.11
2018-09-09T10:40:34.806Z,42.43
2018-09-09T10:42:47.024Z,43.61
2018-09-09T10:44:59.295Z,45.06
2018-09-09T10:47:11.611Z,44.93
2018-09-09T10:49:23.907Z,45.20
2018-09-09T10:51:36.223Z,44.78
2018-09-09T10:53:48.553Z,44.34
2018-09-09T10:56:00.809Z,44.04
2018-09-09T10:58:13.058Z,44.11
2018-09-09T11:00:25.400Z,43.00
2018-09-09T11:02:37.647Z,44.52
2018-09-09T11:04:49.894Z,43.68
2018-09-09T11:07:02.245Z,42.66
2018-09-09T11:09:14.461Z,42.35
2018-09-09T11:11:26.855Z,43.59
2018-09-09T11:13:39.180Z,42.49
2018-09-09T11:15:51.410Z,42.60
2018-09-09T11:18:04.846Z,38.74
2018-09-09T11:20:17.128Z,40.69
2018-09-09T11:22:29.476Z,42.01
2018-09-09T11:24:41.689Z,41.73
2018-09-09T11:26:54.007Z,38.85
2018-09-09T11:29:06.219Z,40.51
2018-09-09T11:31:18.506Z,40.45
2018-09-09T11:33:30.746Z,39.93
2018-09-09T11:35:43.112Z,38.35
2018-09-09T11:37:55.739Z,41.95
2018-09-09T11:40:08.834Z,40.63
2018-09-09T11:42:21.113Z,37.06
2018-09-09T11:44:33.333Z,36.92
2018-09-09T11:46:45.636Z,39.50
2018-09-09T11:48:57.913Z,37.66
2018-09-09T11:51:10.152Z,37.61
2018-09-09T11:53:22.340Z,38.57
2018-09-09T11:55:34.630Z,37.14
2018-09-09T11:57:46.926Z,36.09
2018-09-09T11:59:59.199Z,36.54
2018-09-09T12:02:11.479Z,35.71
2018-09-09T12:04:23.799Z,37.48
2018-09-09T12:06:36.079Z,37.41
2018-09-09T12:08:48.571Z,36.29
2018-09-09T12:11:00.787Z,37.24
2018-09-09T12:13:13.123Z,36.36
2018-09-09T12:15:25.332Z,37.49
2018-09-09T12:17:37.566Z,37.26
2018-09-09T12:19:49.812Z,36.38
2018-09-09T12:22:02.040Z,35.78
2018-09-09T12:24:14.386Z,35.68
2018-09-09T12:26:26.900Z,36.75
2018-09-09T12:28:39.195Z,36.06
2018-09-09T12:30:51.447Z,36.78
2018-09-09T12:33:03.713Z,37.65
2018-09-09T12:35:15.961Z,36.95
2018-09-09T12:37:28.207Z,37.36
2018-09-09T12:39:40.792Z,37.13
2018-09-09T12:41:53.037Z,37.24
2018-09-09T12:44:10.930Z,36.41
2018-09-09T12:47:29.629Z,37.16
2018-09-09T12:49:41.845Z,37.21
2018-09-09T12:51:54.090Z,37.17
2018-09-09T12:54:06.367Z,37.29
2018-09-09T12:56:18.597Z,36.34
2018-09-09T12:58:30.800Z,37.21
2018-09-09T13:00:43.100Z,37.04
2018-09-09T13:02:55.357Z,37.35
2018-09-09T13:05:07.635Z,36.97
2018-09-09T13:07:19.925Z,37.34
2018-09-09T13:09:32.116Z,35.82
2018-09-09T13:11:44.425Z,37.22
2018-09-09T13:13:56.743Z,37.65
2018-09-09T13:16:08.979Z,37.39
2018-09-09T13:18:21.322Z,36.30
2018-09-09T13:20:33.587Z,36.80
2018-09-09T13:22:45.812Z,36.62
2018-09-09T13:24:58.067Z,37.27
2018-09-09T13:27:10.275Z,37.51
2018-09-09T13:29:22.526Z,35.17
2018-09-09T13:31:34.770Z,35.33
2018-09-09T13:33:47.051Z,36.15
2018-09-09T13:35:59.367Z,37.15
2018-09-09T13:38:11.601Z,34.97
2018-09-09T13:40:23.995Z,36.45
2018-09-09T13:42:36.278Z,36.01
2018-09-09T13:44:48.548Z,35.74
2018-09-09T13:47:00.925Z,36.95
2018-09-09T13:49:13.151Z,36.02
2018-09-09T13:51:25.434Z,37.27
2018-09-09T13:53:37.706Z,37.84
2018-09-09T13:55:49.999Z,36.81
2018-09-09T13:58:02.258Z,36.61
2018-09-09T14:00:14.496Z,38.34
2018-09-09T14:02:26.747Z,38.05
2018-09-09T14:04:39.036Z,37.64
2018-09-09T14:06:51.501Z,37.82
2018-09-09T14:09:05.361Z,36.93
2018-09-09T14:11:17.615Z,36.79
2018-09-09T14:13:29.886Z,37.07
2018-09-09T14:15:42.154Z,38.10
2018-09-09T14:17:54.406Z,38.56
2018-09-09T14:20:06.670Z,37.95
2018-09-09T14:22:19.012Z,39.24
2018-09-09T14:24:31.237Z,38.72
2018-09-09T14:26:43.521Z,38.50
2018-09-09T14:28:55.818Z,38.25
2018-09-09T14:31:08.063Z,38.12
2018-09-09T14:33:20.352Z,37.26
2018-09-09T14:35:32.575Z,39.12
2018-09-09T14:37:44.849Z,39.80
2018-09-09T14:39:57.045Z,38.48
2018-09-09T14:42:09.400Z,37.80
2018-09-09T14:44:21.668Z,38.61
2018-09-09T14:46:33.982Z,40.02
2018-09-09T14:48:46.220Z,38.40
2018-09-09T14:50:58.400Z,38.81
2018-09-09T14:53:10.919Z,38.16
2018-09-09T14:55:23.123Z,40.37
2018-09-09T14:57:35.378Z,39.75
2018-09-09T14:59:47.677Z,39.49
2018-09-09T15:01:59.949Z,37.77
2018-09-09T15:04:12.271Z,36.92
2018-09-09T15:06:24.567Z,37.28
2018-09-09T15:08:36.883Z,36.83
2018-09-09T15:10:49.166Z,36.59
2018-09-09T15:13:01.480Z,37.67
2018-09-09T15:15:13.803Z,39.44
2018-09-09T15:17:26.095Z,38.32
2018-09-09T15:19:38.391Z,39.38
2018-09-09T15:21:50.593Z,38.56
2018-09-09T15:24:02.861Z,38.05
2018-09-09T15:26:15.117Z,37.49
2018-09-09T15:28:27.388Z,39.71
2018-09-09T15:30:39.630Z,38.96
2018-09-09T15:32:51.942Z,39.09
2018-09-09T15:35:04.756Z,36.86
2018-09-09T15:37:17.033Z,37.25
2018-09-09T15:39:29.347Z,36.73
2018-09-09T15:41:41.610Z,37.63
2018-09-09T15:43:53.882Z,37.38
2018-09-09T15:46:06.143Z,35.88
2018-09-09T15:48:18.426Z,36.13
2018-09-09T15:50:30.715Z,36.67
2018-09-09T15:52:42.956Z,37.63
2018-09-09T15:54:55.211Z,38.49
2018-09-09T15:57:07.436Z,36.48
2018-09-09T15:59:19.671Z,36.90
2018-09-09T16:01:31.888Z,37.72
2018-09-09T16:03:44.154Z,38.53
2018-09-09T16:05:56.460Z,39.23
2018-09-09T16:08:08.759Z,38.77
2018-09-09T16:10:21.143Z,38.29
2018-09-09T16:12:33.371Z,39.10
2018-09-09T16:14:45.622Z,39.38
2018-09-09T16:16:57.840Z,39.04
2018-09-09T16:19:10.131Z,38.81
2018-09-09T16:21:22.421Z,40.34
2018-09-09T16:23:34.717Z,40.45
2018-09-09T16:25:46.992Z,40.91
2018-09-09T16:27:59.234Z,41.25
2018-09-09T16:30:11.918Z,40.01
2018-09-09T16:32:24.181Z,40.59
2018-09-09T16:34:36.472Z,39.97
2018-09-09T16:36:48.734Z,40.97
2018-09-09T16:39:01.026Z,40.52
2018-09-09T16:41:13.247Z,40.05
2018-09-09T16:43:25.480Z,40.90
2018-09-09T16:45:37.712Z,40.96
2018-09-09T16:47:50.005Z,40.00
2018-09-09T16:50:02.296Z,40.97
2018-09-09T16:52:14.562Z,40.40
2018-09-09T16:54:26.774Z,41.21
2018-09-09T16:56:39.106Z,40.61
2018-09-09T16:58:51.364Z,41.31
2018-09-09T17:01:03.645Z,41.27
2018-09-09T17:03:15.853Z,40.61
2018-09-09T17:05:28.184Z,41.76
2018-09-09T17:07:40.479Z,41.70
2018-09-09T17:09:52.738Z,42.50
2018-09-09T17:12:04.980Z,41.58
2018-09-09T17:14:17.230Z,42.39
2018-09-09T17:16:29.505Z,42.43
2018-09-09T17:18:41.844Z,42.04
2018-09-09T17:20:54.103Z,42.44
2018-09-09T17:23:06.640Z,42.78
2018-09-09T17:25:18.961Z,42.85
2018-09-09T17:27:31.182Z,43.08
2018-09-09T17:29:43.415Z,43.16
2018-09-09T17:31:55.706Z,42.83
2018-09-09T17:34:08.002Z,45.37
2018-09-09T17:36:20.328Z,46.76
2018-09-09T17:38:32.635Z,48.02
2018-09-09T17:40:44.940Z,47.72
2018-09-09T17:42:57.253Z,49.25
2018-09-09T17:45:09.752Z,49.18
2018-09-09T17:47:22.048Z,49.71
2018-09-09T17:49:34.292Z,49.26
2018-09-09T17:51:46.583Z,50.37
2018-09-09T17:53:58.936Z,49.86
2018-09-09T17:56:11.183Z,50.43
2018-09-09T17:58:23.480Z,50.46
2018-09-09T18:00:35.796Z,51.10
2018-09-09T18:02:48.202Z,51.41
2018-09-09T18:05:00.369Z,51.36
2018-09-09T18:07:12.674Z,51.99
2018-09-09T18:09:24.991Z,52.01
2018-09-09T18:11:37.483Z,53.83
2018-09-09T18:13:49.704Z,53.39
2018-09-09T18:16:01.991Z,52.90
2018-09-09T18:18:14.289Z,53.91
2018-09-09T18:20:26.647Z,54.46
2018-09-09T18:22:38.878Z,53.68
2018-09-09T18:24:51.108Z,54.14
2018-09-09T18:27:03.369Z,54.95
2018-09-09T18:29:15.615Z,55.35
2018-09-09T18:31:27.965Z,55.29
2018-09-09T18:33:40.170Z,55.69
2018-09-09T18:35:52.444Z,55.50
2018-09-09T18:38:04.702Z,54.99
2018-09-09T18:40:16.995Z,56.10
2018-09-09T18:42:29.286Z,56.24
2018-09-09T18:44:41.611Z,56.02
2018-09-09T18:46:53.988Z,57.25
2018-09-09T18:49:06.194Z,56.49
2018-09-09T18:51:18.453Z,56.71
2018-09-09T18:53:30.687Z,57.34
2018-09-09T18:55:42.963Z,58.29
2018-09-09T18:57:55.513Z,58.07
2018-09-09T19:00:07.881Z,58.83
2018-09-09T19:02:20.176Z,58.54
2018-09-09T19:04:32.451Z,57.93
2018-09-09T19:06:44.696Z,58.22
2018-09-09T19:08:56.934Z,59.70
2018-09-09T19:11:09.185Z,58.87
2018-09-09T19:13:21.491Z,58.90
2018-09-09T19:15:33.675Z,59.17
2018-09-09T19:17:45.899Z,58.55
2018-09-09T19:19:58.159Z,59.08
2018-09-09T19:22:10.387Z,59.98
2018-09-09T19:24:22.659Z,60.18
2018-09-09T19:26:34.964Z,59.55
2018-09-09T19:28:47.308Z,60.19
2018-09-09T19:30:59.536Z,60.46
2018-09-09T19:33:11.794Z,60.76
2018-09-09T19:35:24.040Z,60.97
2018-09-09T19:37:36.251Z,61.03
2018-09-09T19:39:48.475Z,61.35
2018-09-09T19:42:00.684Z,60.77
2018-09-09T19:44:13.011Z,60.98
2018-09-09T19:46:25.178Z,61.57
2018-09-09T19:48:37.398Z,61.72
2018-09-09T19:50:49.731Z,61.36
2018-09-09T19:53:02.066Z,61.49
2018-09-09T19:55:14.345Z,60.45
2018-09-09T19:57:26.624Z,60.60
2018-09-09T19:59:38.851Z,60.88
2018-09-09T20:01:51.191Z,59.94
2018-09-09T20:04:03.486Z,60.78
2018-09-09T20:06:15.713Z,61.29
2018-09-09T20:08:27.975Z,61.17
2018-09-09T20:10:40.230Z,61.73
2018-09-09T20:12:52.492Z,62.22
2018-09-09T20:15:04.839Z,62.74
2018-09-09T20:17:17.127Z,62.36
2018-09-09T20:19:29.327Z,63.32
2018-09-09T20:21:41.562Z,62.81
2018-09-09T20:23:53.768Z,62.75
2018-09-09T20:26:06.188Z,63.21
2018-09-09T20:28:18.488Z,63.03
2018-09-09T20:30:30.751Z,63.95
2018-09-09T20:32:43.017Z,64.44
2018-09-09T20:34:55.279Z,64.00
2018-09-09T20:37:07.642Z,64.00
2018-09-09T20:39:19.902Z,64.35
2018-09-09T20:41:32.211Z,64.41
2018-09-09T20:43:44.493Z,64.34
2018-09-09T20:45:56.735Z,63.89
2018-09-09T20:48:08.923Z,63.71
2018-09-09T20:50:21.178Z,64.34
2018-09-09T20:52:33.467Z,64.15
2018-09-09T20:54:45.702Z,66.13
2018-09-09T20:56:57.932Z,64.88
2018-09-09T20:59:10.206Z,65.73
2018-09-09T21:01:22.467Z,66.39
2018-09-09T21:03:34.700Z,65.73
2018-09-09T21:05:46.902Z,66.12
2018-09-09T21:07:59.150Z,65.66
2018-09-09T21:10:11.408Z,66.20
2018-09-09T21:12:23.609Z,66.46
2018-09-09T21:14:35.876Z,66.71
2018-09-09T21:16:48.166Z,66.54
2018-09-09T21:19:00.397Z,66.65
2018-09-09T21:21:12.626Z,67.43
2018-09-09T21:23:24.848Z,66.83
2018-09-09T21:25:37.059Z,67.04
2018-09-09T21:27:49.286Z,67.11
2018-09-09T21:30:01.481Z,66.70
2018-09-09T21:32:13.680Z,67.49
2018-09-09T21:34:25.942Z,68.24
2018-09-09T21:36:38.136Z,68.14
2018-09-09T21:38:50.338Z,68.21
2018-09-09T21:41:02.600Z,67.57
2018-09-09T21:43:14.823Z,68.44
2018-09-09T21:45:27.097Z,68.81
2018-09-09T21:47:39.303Z,68.83
2018-09-09T21:49:51.490Z,68.33
2018-09-09T21:52:03.823Z,68.77
2018-09-09T21:54:16.091Z,68.53
2018-09-09T21:56:28.312Z,68.73
2018-09-09T21:58:40.564Z,68.08
2018-09-09T22:00:58.443Z,67.85
2018-09-09T22:03:10.651Z,67.90
2018-09-09T22:05:22.860Z,68.05
2018-09-09T22:07:35.110Z,68.39
2018-09-09T22:09:47.364Z,68.44
2018-09-09T22:11:59.605Z,68.31
2018-09-09T22:14:11.822Z,69.16
2018-09-09T22:16:24.276Z,69.36
2018-09-09T22:18:36.469Z,69.55
2018-09-09T22:20:48.719Z,69.17
2018-09-09T22:23:00.883Z,69.46
2018-09-09T22:25:13.241Z,69.80
2018-09-09T22:27:25.464Z,69.28
2018-09-09T22:29:37.673Z,69.92
2018-09-09T22:31:49.906Z,69.45
2018-09-09T22:34:02.083Z,69.44
2018-09-09T22:36:14.271Z,69.63
2018-09-09T22:38:26.591Z,69.66
2018-09-09T22:40:38.803Z,70.31
2018-09-09T22:42:51.010Z,69.60
2018-09-09T22:45:03.230Z,69.36
2018-09-09T22:47:15.427Z,70.36
2018-09-09T22:49:27.639Z,69.59
2018-09-09T22:51:39.863Z,70.15
2018-09-09T22:53:52.072Z,70.88
2018-09-09T22:56:04.295Z,70.42
2018-09-09T22:58:16.490Z,71.41
2018-09-09T23:00:28.695Z,71.61
2018-09-09T23:02:40.966Z,71.10
2018-09-09T23:04:53.234Z,72.11
2018-09-09T23:07:05.586Z,72.36
2018-09-09T23:09:17.841Z,71.77
2018-09-09T23:11:30.027Z,71.57
2018-09-09T23:13:42.255Z,71.47
2018-09-09T23:15:54.471Z,71.94
2018-09-09T23:18:06.719Z,71.12
2018-09-09T23:20:18.973Z,71.52
2018-09-09T23:22:31.194Z,71.34
2018-09-09T23:24:43.408Z,71.33
2018-09-09T23:26:55.596Z,71.37
2018-09-09T23:29:07.820Z,71.31
2018-09-09T23:31:20.024Z,71.50
2018-09-09T23:33:32.269Z,70.59
2018-09-09T23:35:44.459Z,71.39
2018-09-09T23:37:56.690Z,70.90
2018-09-09T23:40:08.919Z,70.57
2018-09-09T23:42:21.122Z,71.39
2018-09-09T23:44:33.338Z,71.37
2018-09-09T23:46:45.550Z,71.71
2018-09-09T23:48:57.795Z,71.29
2018-09-09T23:51:09.972Z,71.33
2018-09-09T23:53:22.165Z,71.78
2018-09-09T23:55:34.415Z,72.38
2018-09-09T23:57:46.593Z,72.28
2018-09-09T23:59:58.850Z,72.50
